Terminal Aerodrome Forecast
Issued by NWS

Home | Current Version | Previous Version | Text Only | Print | Product List | Glossary On
Versions: 1 2 3 4 5 6 7 8 9 10 11 12
000
FTUS42 KTBW 231700 RRA
TAFPGD
TAF
KPGD 231744Z 2318/2418 02005KT P6SM SCT050 SCT250
     FM232000 34006KT P6SM VCTS SCT050CB SCT120 BKN250
     FM240100 33004KT P6SM VCTS SCT040CB SCT120 BKN250
     FM240300 VRB03KT P6SM FEW120 SCT250
     FM241600 36006KT P6SM FEW035 SCT250=

USA.gov is the U.S. government's official web portal to all federal, state and local government web resources and services.